sensor_id;sensor_type;location;lat;lon;timestamp;pressure;altitude;pressure_sealevel;temperature;humidity
33153;BME280;19509;43.862;26.176;2022-07-24T00:00:40;100534.94;;;23.32;47.55
33153;BME280;19509;43.862;26.176;2022-07-24T00:03:06;100542.56;;;23.35;47.61
33153;BME280;19509;43.862;26.176;2022-07-24T00:05:32;100535.03;;;23.27;47.92
33153;BME280;19509;43.862;26.176;2022-07-24T00:07:57;100529.66;;;23.17;48.00
33153;BME280;19509;43.862;26.176;2022-07-24T00:10:23;100530.63;;;23.26;47.71
33153;BME280;19509;43.862;26.176;2022-07-24T00:12:48;100525.59;;;23.14;48.06
33153;BME280;19509;43.862;26.176;2022-07-24T00:15:14;100526.66;;;23.13;48.16
33153;BME280;19509;43.862;26.176;2022-07-24T00:17:39;100526.75;;;23.08;48.33
33153;BME280;19509;43.862;26.176;2022-07-24T00:20:05;100523.19;;;23.07;48.44
33153;BME280;19509;43.862;26.176;2022-07-24T00:22:31;100528.97;;;23.06;48.32
33153;BME280;19509;43.862;26.176;2022-07-24T00:24:57;100513.41;;;23.01;48.37
33153;BME280;19509;43.862;26.176;2022-07-24T00:27:22;100518.06;;;23.01;48.54
33153;BME280;19509;43.862;26.176;2022-07-24T00:29:48;100517.31;;;22.95;48.70
33153;BME280;19509;43.862;26.176;2022-07-24T00:32:13;100517.03;;;22.97;48.58
33153;BME280;19509;43.862;26.176;2022-07-24T00:34:38;100521.72;;;22.96;48.35
33153;BME280;19509;43.862;26.176;2022-07-24T00:37:04;100511.78;;;23.00;48.24
33153;BME280;19509;43.862;26.176;2022-07-24T00:39:30;100509.69;;;23.11;47.95
33153;BME280;19509;43.862;26.176;2022-07-24T00:44:22;100514.97;;;23.07;47.96
33153;BME280;19509;43.862;26.176;2022-07-24T00:46:47;100505.75;;;22.98;48.26
33153;BME280;19509;43.862;26.176;2022-07-24T00:49:15;100505.25;;;22.96;48.31
33153;BME280;19509;43.862;26.176;2022-07-24T00:51:43;100502.06;;;22.84;48.66
33153;BME280;19509;43.862;26.176;2022-07-24T00:54:10;100501.63;;;22.77;48.86
33153;BME280;19509;43.862;26.176;2022-07-24T00:56:37;100498.66;;;22.73;48.58
33153;BME280;19509;43.862;26.176;2022-07-24T00:59:03;100497.00;;;22.72;48.71
33153;BME280;19509;43.862;26.176;2022-07-24T01:01:29;100495.56;;;22.80;48.69
33153;BME280;19509;43.862;26.176;2022-07-24T01:03:56;100494.44;;;22.81;48.59
33153;BME280;19509;43.862;26.176;2022-07-24T01:06:22;100490.06;;;22.80;48.47
33153;BME280;19509;43.862;26.176;2022-07-24T01:08:48;100487.09;;;22.76;48.76
33153;BME280;19509;43.862;26.176;2022-07-24T01:11:14;100487.38;;;22.75;48.84
33153;BME280;19509;43.862;26.176;2022-07-24T01:13:40;100484.25;;;22.62;49.14
33153;BME280;19509;43.862;26.176;2022-07-24T01:16:06;100478.59;;;22.54;49.21
33153;BME280;19509;43.862;26.176;2022-07-24T01:18:32;100473.91;;;22.54;49.17
33153;BME280;19509;43.862;26.176;2022-07-24T01:20:57;100485.91;;;22.58;49.23
33153;BME280;19509;43.862;26.176;2022-07-24T01:23:23;100473.91;;;22.54;49.02
33153;BME280;19509;43.862;26.176;2022-07-24T01:25:49;100477.69;;;22.58;48.99
33153;BME280;19509;43.862;26.176;2022-07-24T01:28:15;100470.66;;;22.52;49.22
33153;BME280;19509;43.862;26.176;2022-07-24T01:30:40;100467.75;;;22.43;49.41
33153;BME280;19509;43.862;26.176;2022-07-24T01:33:06;100455.59;;;22.50;49.26
33153;BME280;19509;43.862;26.176;2022-07-24T01:35:32;100455.88;;;22.48;49.11
33153;BME280;19509;43.862;26.176;2022-07-24T01:37:57;100457.53;;;22.49;49.06
33153;BME280;19509;43.862;26.176;2022-07-24T01:40:23;100460.88;;;22.46;49.25
33153;BME280;19509;43.862;26.176;2022-07-24T01:42:49;100446.91;;;22.42;49.27
33153;BME280;19509;43.862;26.176;2022-07-24T01:45:14;100449.81;;;22.51;48.67
33153;BME280;19509;43.862;26.176;2022-07-24T01:47:41;100443.38;;;22.42;48.90
33153;BME280;19509;43.862;26.176;2022-07-24T01:50:09;100450.84;;;22.55;48.69
33153;BME280;19509;43.862;26.176;2022-07-24T01:52:34;100452.44;;;22.61;48.57
33153;BME280;19509;43.862;26.176;2022-07-24T01:55:00;100454.81;;;22.68;48.36
33153;BME280;19509;43.862;26.176;2022-07-24T01:57:25;100450.44;;;22.67;48.40
33153;BME280;19509;43.862;26.176;2022-07-24T01:59:51;100454.72;;;22.54;48.80
33153;BME280;19509;43.862;26.176;2022-07-24T02:02:16;100446.22;;;22.56;49.06
33153;BME280;19509;43.862;26.176;2022-07-24T02:04:42;100449.59;;;22.48;48.64
33153;BME280;19509;43.862;26.176;2022-07-24T02:07:07;100449.81;;;22.51;49.08
33153;BME280;19509;43.862;26.176;2022-07-24T02:09:32;100464.06;;;22.53;49.52
33153;BME280;19509;43.862;26.176;2022-07-24T02:11:58;100456.09;;;22.33;50.08
33153;BME280;19509;43.862;26.176;2022-07-24T02:14:23;100462.88;;;22.11;50.59
33153;BME280;19509;43.862;26.176;2022-07-24T02:16:49;100464.63;;;21.97;50.93
33153;BME280;19509;43.862;26.176;2022-07-24T02:19:14;100453.59;;;21.78;51.31
33153;BME280;19509;43.862;26.176;2022-07-24T02:21:40;100450.63;;;21.75;51.15
33153;BME280;19509;43.862;26.176;2022-07-24T02:24:06;100461.22;;;21.52;52.20
33153;BME280;19509;43.862;26.176;2022-07-24T02:26:31;100448.56;;;21.61;51.63
33153;BME280;19509;43.862;26.176;2022-07-24T02:28:57;100469.91;;;21.59;51.57
33153;BME280;19509;43.862;26.176;2022-07-24T02:31:22;100465.47;;;21.29;52.32
33153;BME280;19509;43.862;26.176;2022-07-24T02:33:48;100467.78;;;21.12;53.07
33153;BME280;19509;43.862;26.176;2022-07-24T02:36:13;100460.44;;;21.07;53.05
33153;BME280;19509;43.862;26.176;2022-07-24T02:38:40;100468.03;;;21.15;52.87
33153;BME280;19509;43.862;26.176;2022-07-24T02:41:05;100462.22;;;21.27;52.79
33153;BME280;19509;43.862;26.176;2022-07-24T02:43:30;100460.53;;;21.31;52.72
33153;BME280;19509;43.862;26.176;2022-07-24T02:45:56;100456.44;;;21.29;52.24
33153;BME280;19509;43.862;26.176;2022-07-24T02:48:21;100455.06;;;21.31;52.29
33153;BME280;19509;43.862;26.176;2022-07-24T02:50:47;100458.88;;;21.35;52.51
33153;BME280;19509;43.862;26.176;2022-07-24T02:53:12;100461.06;;;21.38;52.70
33153;BME280;19509;43.862;26.176;2022-07-24T02:55:38;100460.59;;;21.21;53.10
33153;BME280;19509;43.862;26.176;2022-07-24T02:58:03;100459.31;;;21.08;53.47
33153;BME280;19509;43.862;26.176;2022-07-24T03:00:29;100454.06;;;21.17;53.53
33153;BME280;19509;43.862;26.176;2022-07-24T03:02:55;100453.66;;;20.94;53.99
33153;BME280;19509;43.862;26.176;2022-07-24T03:05:21;100453.75;;;20.79;54.50
33153;BME280;19509;43.862;26.176;2022-07-24T03:07:48;100453.16;;;20.82;54.48
33153;BME280;19509;43.862;26.176;2022-07-24T03:10:14;100452.78;;;20.99;54.29
33153;BME280;19509;43.862;26.176;2022-07-24T03:12:41;100455.91;;;20.82;54.84
33153;BME280;19509;43.862;26.176;2022-07-24T03:15:08;100457.56;;;20.78;54.55
33153;BME280;19509;43.862;26.176;2022-07-24T03:17:33;100457.81;;;20.82;54.69
33153;BME280;19509;43.862;26.176;2022-07-24T03:19:59;100457.06;;;20.76;54.95
33153;BME280;19509;43.862;26.176;2022-07-24T03:22:25;100455.41;;;20.75;54.89
33153;BME280;19509;43.862;26.176;2022-07-24T03:24:50;100463.13;;;20.63;55.43
33153;BME280;19509;43.862;26.176;2022-07-24T03:27:15;100458.16;;;20.70;54.58
33153;BME280;19509;43.862;26.176;2022-07-24T03:29:41;100452.84;;;20.89;54.73
33153;BME280;19509;43.862;26.176;2022-07-24T03:32:06;100457.19;;;20.95;54.57
33153;BME280;19509;43.862;26.176;2022-07-24T03:34:32;100458.56;;;20.97;54.29
33153;BME280;19509;43.862;26.176;2022-07-24T03:36:57;100467.28;;;21.05;53.54
33153;BME280;19509;43.862;26.176;2022-07-24T03:39:23;100469.75;;;21.01;53.69
33153;BME280;19509;43.862;26.176;2022-07-24T03:41:49;100474.06;;;21.12;53.88
33153;BME280;19509;43.862;26.176;2022-07-24T03:44:14;100473.91;;;21.33;53.82
33153;BME280;19509;43.862;26.176;2022-07-24T03:46:40;100475.28;;;21.40;53.84
33153;BME280;19509;43.862;26.176;2022-07-24T03:49:05;100472.03;;;21.33;55.17
33153;BME280;19509;43.862;26.176;2022-07-24T03:51:31;100473.09;;;21.32;54.37
33153;BME280;19509;43.862;26.176;2022-07-24T04:06:49;100471.72;;;22.03;53.12
33153;BME280;19509;43.862;26.176;2022-07-24T04:09:15;100483.81;;;21.97;52.94
33153;BME280;19509;43.862;26.176;2022-07-24T04:11:40;100482.44;;;22.00;52.63
33153;BME280;19509;43.862;26.176;2022-07-24T04:14:05;100478.91;;;22.28;52.99
33153;BME280;19509;43.862;26.176;2022-07-24T04:16:31;100478.94;;;22.47;51.52
33153;BME280;19509;43.862;26.176;2022-07-24T04:18:57;100484.31;;;22.57;51.33
33153;BME280;19509;43.862;26.176;2022-07-24T04:21:22;100475.22;;;22.81;52.08
33153;BME280;19509;43.862;26.176;2022-07-24T04:23:48;100465.63;;;23.02;51.18
33153;BME280;19509;43.862;26.176;2022-07-24T04:26:13;100471.56;;;23.09;51.52
33153;BME280;19509;43.862;26.176;2022-07-24T04:28:39;100465.19;;;23.14;52.47
33153;BME280;19509;43.862;26.176;2022-07-24T04:31:04;100470.81;;;23.23;52.24
33153;BME280;19509;43.862;26.176;2022-07-24T04:33:30;100468.59;;;23.25;51.67
33153;BME280;19509;43.862;26.176;2022-07-24T04:35:55;100452.25;;;23.33;50.66
33153;BME280;19509;43.862;26.176;2022-07-24T04:38:21;100470.25;;;23.58;50.85
33153;BME280;19509;43.862;26.176;2022-07-24T04:40:46;100470.75;;;23.79;48.19
33153;BME280;19509;43.862;26.176;2022-07-24T04:43:12;100468.03;;;23.93;47.38
33153;BME280;19509;43.862;26.176;2022-07-24T04:45:38;100457.25;;;23.97;47.45
33153;BME280;19509;43.862;26.176;2022-07-24T04:48:03;100453.91;;;24.14;47.67
33153;BME280;19509;43.862;26.176;2022-07-24T04:50:29;100449.22;;;24.28;47.62
33153;BME280;19509;43.862;26.176;2022-07-24T04:52:55;100459.84;;;24.48;47.19
33153;BME280;19509;43.862;26.176;2022-07-24T04:55:21;100460.44;;;24.73;46.27
33153;BME280;19509;43.862;26.176;2022-07-24T04:57:47;100456.34;;;24.84;46.73
33153;BME280;19509;43.862;26.176;2022-07-24T05:00:13;100462.41;;;25.09;45.28
33153;BME280;19509;43.862;26.176;2022-07-24T05:02:39;100462.56;;;25.26;44.69
33153;BME280;19509;43.862;26.176;2022-07-24T05:05:05;100462.75;;;25.30;45.06
33153;BME280;19509;43.862;26.176;2022-07-24T05:07:30;100465.44;;;25.43;44.09
33153;BME280;19509;43.862;26.176;2022-07-24T05:09:56;100463.41;;;25.71;44.14
33153;BME280;19509;43.862;26.176;2022-07-24T05:12:23;100461.25;;;25.91;43.48
33153;BME280;19509;43.862;26.176;2022-07-24T05:14:48;100460.63;;;25.94;44.04
33153;BME280;19509;43.862;26.176;2022-07-24T05:17:14;100465.28;;;26.25;43.92
33153;BME280;19509;43.862;26.176;2022-07-24T05:19:40;100452.88;;;26.45;42.90
33153;BME280;19509;43.862;26.176;2022-07-24T05:22:05;100457.16;;;26.59;42.87
33153;BME280;19509;43.862;26.176;2022-07-24T05:24:31;100458.63;;;26.65;42.35
33153;BME280;19509;43.862;26.176;2022-07-24T05:26:56;100458.66;;;26.83;42.36
33153;BME280;19509;43.862;26.176;2022-07-24T05:29:22;100460.97;;;26.98;41.85
33153;BME280;19509;43.862;26.176;2022-07-24T05:31:47;100450.06;;;27.10;41.53
33153;BME280;19509;43.862;26.176;2022-07-24T05:34:13;100452.06;;;27.19;41.43
33153;BME280;19509;43.862;26.176;2022-07-24T05:36:38;100440.00;;;27.41;41.26
33153;BME280;19509;43.862;26.176;2022-07-24T05:39:04;100441.44;;;27.73;39.46
33153;BME280;19509;43.862;26.176;2022-07-24T05:41:30;100421.09;;;27.86;39.50
33153;BME280;19509;43.862;26.176;2022-07-24T05:43:56;100431.84;;;27.79;39.43
33153;BME280;19509;43.862;26.176;2022-07-24T05:46:21;100426.06;;;28.01;38.60
33153;BME280;19509;43.862;26.176;2022-07-24T05:48:47;100420.13;;;28.20;38.19
33153;BME280;19509;43.862;26.176;2022-07-24T05:51:12;100424.75;;;28.37;38.40
33153;BME280;19509;43.862;26.176;2022-07-24T05:53:37;100412.56;;;28.68;37.14
33153;BME280;19509;43.862;26.176;2022-07-24T05:56:03;100423.53;;;29.06;36.11
33153;BME280;19509;43.862;26.176;2022-07-24T05:58:29;100420.91;;;28.80;37.24
33153;BME280;19509;43.862;26.176;2022-07-24T06:00:55;100423.81;;;28.84;37.39
33153;BME280;19509;43.862;26.176;2022-07-24T06:03:20;100418.72;;;28.94;37.68
33153;BME280;19509;43.862;26.176;2022-07-24T06:05:45;100421.00;;;28.92;38.05
33153;BME280;19509;43.862;26.176;2022-07-24T06:08:11;100428.38;;;29.09;37.98
33153;BME280;19509;43.862;26.176;2022-07-24T06:10:37;100422.44;;;29.19;37.55
33153;BME280;19509;43.862;26.176;2022-07-24T06:13:02;100422.38;;;29.28;37.40
33153;BME280;19509;43.862;26.176;2022-07-24T06:15:28;100411.31;;;29.40;36.89
33153;BME280;19509;43.862;26.176;2022-07-24T06:17:54;100415.88;;;29.57;37.15
33153;BME280;19509;43.862;26.176;2022-07-24T06:20:20;100410.63;;;29.77;36.93
33153;BME280;19509;43.862;26.176;2022-07-24T06:22:45;100410.88;;;29.84;36.42
33153;BME280;19509;43.862;26.176;2022-07-24T06:25:11;100408.69;;;30.02;36.84
33153;BME280;19509;43.862;26.176;2022-07-24T06:27:41;100406.94;;;30.09;36.08
33153;BME280;19509;43.862;26.176;2022-07-24T06:30:14;100394.28;;;30.21;35.35
33153;BME280;19509;43.862;26.176;2022-07-24T06:32:40;100397.97;;;30.37;35.88
33153;BME280;19509;43.862;26.176;2022-07-24T06:35:06;100386.50;;;30.51;35.12
33153;BME280;19509;43.862;26.176;2022-07-24T06:37:31;100398.25;;;30.60;35.04
33153;BME280;19509;43.862;26.176;2022-07-24T06:39:56;100390.84;;;30.76;34.36
33153;BME280;19509;43.862;26.176;2022-07-24T06:42:22;100386.97;;;30.93;33.76
33153;BME280;19509;43.862;26.176;2022-07-24T06:44:47;100383.59;;;31.00;33.33
33153;BME280;19509;43.862;26.176;2022-07-24T06:47:13;100392.09;;;31.19;33.58
33153;BME280;19509;43.862;26.176;2022-07-24T06:49:38;100392.59;;;31.37;32.96
33153;BME280;19509;43.862;26.176;2022-07-24T06:52:04;100383.47;;;31.37;32.70
33153;BME280;19509;43.862;26.176;2022-07-24T06:54:29;100382.94;;;31.47;32.87
33153;BME280;19509;43.862;26.176;2022-07-24T06:56:55;100381.88;;;31.67;32.58
33153;BME280;19509;43.862;26.176;2022-07-24T06:59:20;100374.59;;;31.78;31.97
33153;BME280;19509;43.862;26.176;2022-07-24T07:01:46;100376.72;;;31.97;31.83
33153;BME280;19509;43.862;26.176;2022-07-24T07:04:11;100374.19;;;32.08;30.83
33153;BME280;19509;43.862;26.176;2022-07-24T07:06:37;100379.13;;;32.15;30.86
33153;BME280;19509;43.862;26.176;2022-07-24T07:09:02;100367.41;;;32.25;31.34
33153;BME280;19509;43.862;26.176;2022-07-24T07:11:28;100373.88;;;32.29;30.61
33153;BME280;19509;43.862;26.176;2022-07-24T07:13:53;100378.88;;;32.39;30.17
33153;BME280;19509;43.862;26.176;2022-07-24T07:16:19;100379.94;;;32.50;30.47
33153;BME280;19509;43.862;26.176;2022-07-24T07:18:44;100375.78;;;32.60;30.96
33153;BME280;19509;43.862;26.176;2022-07-24T07:21:10;100367.88;;;32.62;30.09
33153;BME280;19509;43.862;26.176;2022-07-24T07:23:35;100377.66;;;32.72;30.07
33153;BME280;19509;43.862;26.176;2022-07-24T07:26:01;100372.94;;;32.76;29.70
33153;BME280;19509;43.862;26.176;2022-07-24T07:28:26;100373.31;;;32.94;29.45
33153;BME280;19509;43.862;26.176;2022-07-24T07:30:52;100371.00;;;33.15;29.99
33153;BME280;19509;43.862;26.176;2022-07-24T07:33:17;100362.91;;;33.30;29.54
33153;BME280;19509;43.862;26.176;2022-07-24T07:35:43;100362.97;;;33.33;29.69
33153;BME280;19509;43.862;26.176;2022-07-24T07:38:08;100356.47;;;33.49;28.27
33153;BME280;19509;43.862;26.176;2022-07-24T07:40:34;100362.47;;;33.70;27.99
33153;BME280;19509;43.862;26.176;2022-07-24T07:42:59;100357.47;;;33.83;28.56
33153;BME280;19509;43.862;26.176;2022-07-24T07:45:24;100353.28;;;33.96;27.86
33153;BME280;19509;43.862;26.176;2022-07-24T07:47:50;100351.88;;;34.06;27.59
33153;BME280;19509;43.862;26.176;2022-07-24T07:50:15;100350.69;;;34.07;27.16
33153;BME280;19509;43.862;26.176;2022-07-24T07:52:41;100354.38;;;34.11;27.49
33153;BME280;19509;43.862;26.176;2022-07-24T07:55:06;100344.41;;;34.13;27.63
33153;BME280;19509;43.862;26.176;2022-07-24T07:57:32;100350.63;;;34.30;27.15
33153;BME280;19509;43.862;26.176;2022-07-24T07:59:58;100337.69;;;34.45;26.85
33153;BME280;19509;43.862;26.176;2022-07-24T08:02:23;100339.19;;;34.65;26.65
33153;BME280;19509;43.862;26.176;2022-07-24T08:04:48;100341.94;;;34.62;26.62
33153;BME280;19509;43.862;26.176;2022-07-24T08:07:14;100336.84;;;34.71;26.66
33153;BME280;19509;43.862;26.176;2022-07-24T08:09:40;100336.84;;;34.71;26.64
33153;BME280;19509;43.862;26.176;2022-07-24T08:12:05;100344.56;;;34.81;26.47
33153;BME280;19509;43.862;26.176;2022-07-24T08:14:31;100333.28;;;35.04;25.74
33153;BME280;19509;43.862;26.176;2022-07-24T08:16:57;100341.09;;;35.28;25.47
33153;BME280;19509;43.862;26.176;2022-07-24T08:19:23;100337.75;;;35.53;25.49
33153;BME280;19509;43.862;26.176;2022-07-24T08:21:48;100337.47;;;35.62;24.89
33153;BME280;19509;43.862;26.176;2022-07-24T08:24:14;100338.41;;;35.84;24.60
33153;BME280;19509;43.862;26.176;2022-07-24T08:26:49;100335.69;;;35.91;24.35
33153;BME280;19509;43.862;26.176;2022-07-24T08:29:15;100329.03;;;36.10;24.95
33153;BME280;19509;43.862;26.176;2022-07-24T08:31:40;100329.03;;;36.10;24.54
33153;BME280;19509;43.862;26.176;2022-07-24T08:34:06;100333.91;;;36.20;23.27
33153;BME280;19509;43.862;26.176;2022-07-24T08:36:31;100331.56;;;36.29;22.62
33153;BME280;19509;43.862;26.176;2022-07-24T08:38:57;100330.06;;;36.46;22.64
33153;BME280;19509;43.862;26.176;2022-07-24T08:41:23;100323.72;;;36.56;22.67
33153;BME280;19509;43.862;26.176;2022-07-24T08:43:48;100329.03;;;36.83;22.19
33153;BME280;19509;43.862;26.176;2022-07-24T08:46:15;100320.22;;;36.81;21.77
33153;BME280;19509;43.862;26.176;2022-07-24T08:48:45;100323.81;;;36.88;21.99
33153;BME280;19509;43.862;26.176;2022-07-24T08:51:13;100324.66;;;36.92;21.61
33153;BME280;19509;43.862;26.176;2022-07-24T08:53:39;100325.53;;;37.22;22.49
33153;BME280;19509;43.862;26.176;2022-07-24T08:56:05;100317.19;;;37.61;21.95
33153;BME280;19509;43.862;26.176;2022-07-24T08:58:36;100319.59;;;37.45;22.52
33153;BME280;19509;43.862;26.176;2022-07-24T09:01:02;100314.38;;;37.75;21.00
33153;BME280;19509;43.862;26.176;2022-07-24T09:03:27;100308.34;;;38.09;21.06
33153;BME280;19509;43.862;26.176;2022-07-24T09:05:58;100322.34;;;38.16;20.39
33153;BME280;19509;43.862;26.176;2022-07-24T09:08:24;100310.75;;;37.89;20.26
33153;BME280;19509;43.862;26.176;2022-07-24T09:10:56;100308.34;;;38.09;20.07
33153;BME280;19509;43.862;26.176;2022-07-24T09:13:26;100318.38;;;37.78;20.13
33153;BME280;19509;43.862;26.176;2022-07-24T09:15:52;100323.59;;;37.83;20.07
33153;BME280;19509;43.862;26.176;2022-07-24T09:18:29;100315.94;;;38.12;20.00
33153;BME280;19509;43.862;26.176;2022-07-24T09:20:55;100317.09;;;38.43;19.64
33153;BME280;19509;43.862;26.176;2022-07-24T09:23:21;100314.94;;;38.79;20.06
33153;BME280;19509;43.862;26.176;2022-07-24T09:25:51;100314.44;;;38.95;19.54
33153;BME280;19509;43.862;26.176;2022-07-24T09:28:17;100305.75;;;38.65;18.39
33153;BME280;19509;43.862;26.176;2022-07-24T09:30:43;100310.28;;;38.37;19.22
33153;BME280;19509;43.862;26.176;2022-07-24T09:35:46;100308.31;;;38.20;19.45
33153;BME280;19509;43.862;26.176;2022-07-24T09:38:16;100299.41;;;38.50;19.96
33153;BME280;19509;43.862;26.176;2022-07-24T09:40:44;100286.06;;;38.61;19.64
33153;BME280;19509;43.862;26.176;2022-07-24T09:43:14;100296.56;;;38.53;21.88
33153;BME280;19509;43.862;26.176;2022-07-24T09:45:56;100286.25;;;38.00;21.87
33153;BME280;19509;43.862;26.176;2022-07-24T09:50:53;100284.25;;;37.36;23.29
33153;BME280;19509;43.862;26.176;2022-07-24T09:53:21;100292.31;;;37.52;24.02
33153;BME280;19509;43.862;26.176;2022-07-24T09:56:04;100280.69;;;37.68;23.24
33153;BME280;19509;43.862;26.176;2022-07-24T09:58:32;100288.69;;;37.77;23.36
33153;BME280;19509;43.862;26.176;2022-07-24T10:00:58;100279.84;;;38.03;23.46
33153;BME280;19509;43.862;26.176;2022-07-24T10:03:30;100277.00;;;38.14;24.05
33153;BME280;19509;43.862;26.176;2022-07-24T10:06:00;100274.59;;;38.20;23.05
33153;BME280;19509;43.862;26.176;2022-07-24T10:08:26;100268.47;;;38.50;22.90
33153;BME280;19509;43.862;26.176;2022-07-24T10:10:53;100271.59;;;38.70;22.76
33153;BME280;19509;43.862;26.176;2022-07-24T10:13:19;100272.47;;;38.56;21.84
33153;BME280;19509;43.862;26.176;2022-07-24T10:18:32;100266.44;;;38.54;22.03
33153;BME280;19509;43.862;26.176;2022-07-24T10:21:06;100269.75;;;39.08;20.78
33153;BME280;19509;43.862;26.176;2022-07-24T10:23:52;100258.94;;;38.99;20.88
33153;BME280;19509;43.862;26.176;2022-07-24T10:29:05;100262.81;;;39.20;20.75
33153;BME280;19509;43.862;26.176;2022-07-24T10:31:34;100248.22;;;39.39;20.10
33153;BME280;19509;43.862;26.176;2022-07-24T10:34:04;100255.81;;;39.46;19.52
33153;BME280;19509;43.862;26.176;2022-07-24T10:36:33;100253.41;;;39.44;19.94
33153;BME280;19509;43.862;26.176;2022-07-24T10:39:10;100250.00;;;39.64;18.84
33153;BME280;19509;43.862;26.176;2022-07-24T10:41:38;100253.59;;;39.71;18.63
33153;BME280;19509;43.862;26.176;2022-07-24T10:44:15;100256.19;;;39.48;18.88
33153;BME280;19509;43.862;26.176;2022-07-24T10:47:05;100247.41;;;38.87;19.33
33153;BME280;19509;43.862;26.176;2022-07-24T10:49:44;100237.06;;;39.25;19.76
33153;BME280;19509;43.862;26.176;2022-07-24T10:52:31;100240.09;;;39.48;19.98
33153;BME280;19509;43.862;26.176;2022-07-24T10:55:22;100243.00;;;38.82;19.83
33153;BME280;19509;43.862;26.176;2022-07-24T10:57:54;100240.31;;;39.20;19.90
33153;BME280;19509;43.862;26.176;2022-07-24T11:00:33;100226.66;;;39.18;20.77
33153;BME280;19509;43.862;26.176;2022-07-24T11:03:04;100239.53;;;39.16;20.49
33153;BME280;19509;43.862;26.176;2022-07-24T11:05:36;100228.19;;;39.30;19.89
33153;BME280;19509;43.862;26.176;2022-07-24T11:10:53;100230.81;;;39.52;19.12
33153;BME280;19509;43.862;26.176;2022-07-24T11:21:30;100219.06;;;39.60;19.22
33153;BME280;19509;43.862;26.176;2022-07-24T11:24:26;100215.69;;;39.35;19.92
33153;BME280;19509;43.862;26.176;2022-07-24T11:29:25;100218.09;;;39.36;20.05
33153;BME280;19509;43.862;26.176;2022-07-24T11:31:57;100208.63;;;39.57;19.67
33153;BME280;19509;43.862;26.176;2022-07-24T11:34:24;100206.16;;;39.63;20.26
33153;BME280;19509;43.862;26.176;2022-07-24T11:36:52;100196.97;;;39.59;20.22
33153;BME280;19509;43.862;26.176;2022-07-24T11:39:19;100202.91;;;39.68;19.84
33153;BME280;19509;43.862;26.176;2022-07-24T11:41:55;100200.22;;;39.54;19.87
33153;BME280;19509;43.862;26.176;2022-07-24T11:44:24;100198.16;;;39.61;19.53
33153;BME280;19509;43.862;26.176;2022-07-24T11:46:49;100190.69;;;39.40;19.68
33153;BME280;19509;43.862;26.176;2022-07-24T11:49:15;100175.53;;;39.72;19.83
33153;BME280;19509;43.862;26.176;2022-07-24T11:51:42;100182.66;;;40.14;19.01
33153;BME280;19509;43.862;26.176;2022-07-24T11:54:09;100185.56;;;39.69;18.87
33153;BME280;19509;43.862;26.176;2022-07-24T11:56:34;100184.53;;;39.53;18.88
33153;BME280;19509;43.862;26.176;2022-07-24T11:59:00;100177.91;;;39.73;19.08
33153;BME280;19509;43.862;26.176;2022-07-24T12:01:25;100174.75;;;39.68;18.60
33153;BME280;19509;43.862;26.176;2022-07-24T12:03:52;100179.00;;;39.83;17.98
33153;BME280;19509;43.862;26.176;2022-07-24T12:06:19;100177.94;;;40.04;17.55
33153;BME280;19509;43.862;26.176;2022-07-24T12:08:45;100180.59;;;40.18;17.37
33153;BME280;19509;43.862;26.176;2022-07-24T12:11:10;100172.66;;;40.40;16.74
33153;BME280;19509;43.862;26.176;2022-07-24T12:13:40;100174.03;;;40.29;16.84
33153;BME280;19509;43.862;26.176;2022-07-24T12:16:07;100166.63;;;40.38;17.05
33153;BME280;19509;43.862;26.176;2022-07-24T12:18:32;100170.28;;;40.66;16.65
33153;BME280;19509;43.862;26.176;2022-07-24T12:21:00;100163.31;;;40.47;17.11
33153;BME280;19509;43.862;26.176;2022-07-24T12:23:26;100170.50;;;40.21;17.15
33153;BME280;19509;43.862;26.176;2022-07-24T12:25:54;100164.94;;;40.14;17.24
33153;BME280;19509;43.862;26.176;2022-07-24T12:28:20;100160.44;;;39.89;17.68
33153;BME280;19509;43.862;26.176;2022-07-24T12:30:47;100158.28;;;39.63;17.58
33153;BME280;19509;43.862;26.176;2022-07-24T12:36:01;100149.84;;;39.63;17.65
33153;BME280;19509;43.862;26.176;2022-07-24T12:38:38;100149.84;;;39.97;17.33
33153;BME280;19509;43.862;26.176;2022-07-24T12:41:15;100153.06;;;39.65;17.18
33153;BME280;19509;43.862;26.176;2022-07-24T12:43:57;100134.97;;;39.96;16.96
33153;BME280;19509;43.862;26.176;2022-07-24T12:46:29;100136.16;;;39.65;16.66
33153;BME280;19509;43.862;26.176;2022-07-24T12:49:24;100137.78;;;39.96;17.25
33153;BME280;19509;43.862;26.176;2022-07-24T12:52:04;100142.00;;;40.15;16.47
33153;BME280;19509;43.862;26.176;2022-07-24T12:54:34;100130.47;;;40.33;15.93
33153;BME280;19509;43.862;26.176;2022-07-24T12:57:06;100131.28;;;40.61;15.61
33153;BME280;19509;43.862;26.176;2022-07-24T12:59:40;100128.22;;;41.02;16.04
33153;BME280;19509;43.862;26.176;2022-07-24T13:02:25;100135.66;;;40.89;15.51
33153;BME280;19509;43.862;26.176;2022-07-24T13:04:52;100134.03;;;40.37;14.90
33153;BME280;19509;43.862;26.176;2022-07-24T13:07:20;100136.38;;;39.81;15.79
33153;BME280;19509;43.862;26.176;2022-07-24T13:09:47;100125.81;;;39.89;16.43
33153;BME280;19509;43.862;26.176;2022-07-24T13:12:13;100126.22;;;39.87;16.04
33153;BME280;19509;43.862;26.176;2022-07-24T13:14:39;100125.19;;;40.05;16.10
33153;BME280;19509;43.862;26.176;2022-07-24T13:17:07;100121.34;;;40.49;16.08
33153;BME280;19509;43.862;26.176;2022-07-24T13:19:40;100110.72;;;40.87;15.79
33153;BME280;19509;43.862;26.176;2022-07-24T13:22:06;100109.84;;;40.90;15.69